Home > Products > Valid Products > TAF

000
FTUS41 KLWX 122335
TAFMTN
TAF
KMTN 122335Z 1300/1324 17005KT 5SM -SHSN SCT010 BKN030
      TEMPO 1301/1304 2SM -SHSN BKN020
     FM130500 26007KT P6SM BKN050
     FM130800 28016G33KT P6SM BKN050 BKN060
     FM131000 29020G40KT P6SM FEW080 SCT090
     FM131900 30020G33KT P6SM SCT040 BKN060
      AMD NOT SKED 1302/1312=



000
FTUS41 KLWX 122335
TAFCHO
TAF
KCHO 122335Z 1300/1324 22005KT P6SM SCT040 BKN050
     FM130300 28005KT P6SM SCT045 BKN060
     FM130700 30009KT P6SM FEW050 SCT090
     FM131000 31012G22KT P6SM FEW050 FEW120=



000
FTUS41 KLWX 122335
TAFIAD
TAF
KIAD 122335Z 1300/1406 17004KT 5SM -SHSN SCT010 BKN030
      TEMPO 1301/1304 2SM -SHSN BKN020
     FM130400 28006KT P6SM SCT045 BKN050
     FM130800 30015G32KT P6SM FEW060 SCT080
     FM131000 31019G39KT P6SM FEW060 SCT120
     FM131900 31020G31KT P6SM FEW050 SCT100=



000
FTUS41 KLWX 122335
TAFMRB
TAF
KMRB 122335Z 1300/1324 27004KT 3SM -SHSN SCT010 OVC030
      TEMPO 1300/1302 1SM -SHSN
     FM130200 27005KT P6SM SCT040 BKN050
     FM130500 28009KT P6SM SCT040 BKN050
     FM130800 31018G37KT P6SM FEW040 SCT080
     FM131900 30019G31KT P6SM SCT045 BKN060=



000
FTUS41 KLWX 122335
TAFDCA
TAF
KDCA 122335Z 1300/1324 16005KT 5SM -SHSN SCT010 BKN040
      TEMPO 1301/1304 2SM -SHSN BKN020
     FM130500 27007KT P6SM SCT045 BKN050
     FM130800 30015G33KT P6SM FEW050 SCT060
     FM131000 31020G40KT P6SM FEW060 SCT100
     FM131800 31019G32KT P6SM FEW045 SCT100=



000
FTUS41 KLWX 122335
TAFMRB
TAF
KMRB 122335Z 1300/1324 27004KT 3SM -SHSN SCT010 OVC030
      TEMPO 1300/1302 1SM -SHSN
     FM130200 27005KT P6SM SCT040 BKN050
     FM130500 28009KT P6SM SCT040 BKN050
     FM130800 31018G37KT P6SM FEW040 SCT080
     FM131900 30019G31KT P6SM SCT045 BKN060=



000
FTUS41 KLWX 122335
TAFCHO
TAF
KCHO 122335Z 1300/1324 22005KT P6SM SCT040 BKN050
     FM130300 28005KT P6SM SCT045 BKN060
     FM130700 30009KT P6SM FEW050 SCT090
     FM131000 31012G22KT P6SM FEW050 FEW120=



000
FTUS41 KLWX 122335
TAFIAD
TAF
KIAD 122335Z 1300/1406 17004KT 5SM -SHSN SCT010 BKN030
      TEMPO 1301/1304 2SM -SHSN BKN020
     FM130400 28006KT P6SM SCT045 BKN050
     FM130800 30015G32KT P6SM FEW060 SCT080
     FM131000 31019G39KT P6SM FEW060 SCT120
     FM131900 31020G31KT P6SM FEW050 SCT100=



000
FTUS41 KLWX 122335
TAFBWI
TAF
KBWI 122335Z 1300/1406 16004KT 5SM -SHSN SCT010 BKN030
      TEMPO 1301/1304 2SM -SHSN BKN020
     FM130500 27007KT P6SM SCT045 BKN050
     FM130800 29015G32KT P6SM FEW050 SCT060
     FM131000 30019G39KT P6SM FEW080 SCT100
     FM131900 30020G32KT P6SM SCT040 BKN060=



000
FTUS41 KLWX 122335
TAFDCA
TAF
KDCA 122335Z 1300/1324 16005KT 5SM -SHSN SCT010 BKN040
      TEMPO 1301/1304 2SM -SHSN BKN020
     FM130500 27007KT P6SM SCT045 BKN050
     FM130800 30015G33KT P6SM FEW050 SCT060
     FM131000 31020G40KT P6SM FEW060 SCT100
     FM131800 31019G32KT P6SM FEW045 SCT100=



000
FTUS41 KLWX 122335
TAFMTN
TAF
KMTN 122335Z 1300/1324 17005KT 5SM -SHSN SCT010 BKN030
      TEMPO 1301/1304 2SM -SHSN BKN020
     FM130500 26007KT P6SM BKN050
     FM130800 28016G33KT P6SM BKN050 BKN060
     FM131000 29020G40KT P6SM FEW080 SCT090
     FM131900 30020G33KT P6SM SCT040 BKN060
      AMD NOT SKED 1302/1312=



000
FTUS41 KLWX 122335
TAFBWI
TAF
KBWI 122335Z 1300/1406 16004KT 5SM -SHSN SCT010 BKN030
      TEMPO 1301/1304 2SM -SHSN BKN020
     FM130500 27007KT P6SM SCT045 BKN050
     FM130800 29015G32KT P6SM FEW050 SCT060
     FM131000 30019G39KT P6SM FEW080 SCT100
     FM131900 30020G32KT P6SM SCT040 BKN060=



000
FTUS41 KLWX 122308 AAB
TAFMRB
TAF AMD
KMRB 122308Z 1223/1318 21006KT 1SM -SHSN SCT010 OVC020
     FM130000 27004KT 3SM -SHSN SCT030 OVC035
     FM130200 27005KT P6SM BKN035 BKN040
     FM130500 29010KT P6SM SCT045 BKN050
     FM130800 30021G35KT P6SM SCT045 BKN060
     FM131200 31022G37KT P6SM FEW045 SCT120=



000
FTUS41 KLWX 122308 AAB
TAFMRB
TAF AMD
KMRB 122308Z 1223/1318 21006KT 1SM -SHSN SCT010 OVC020
     FM130000 27004KT 3SM -SHSN SCT030 OVC035
     FM130200 27005KT P6SM BKN035 BKN040
     FM130500 29010KT P6SM SCT045 BKN050
     FM130800 30021G35KT P6SM SCT045 BKN060
     FM131200 31022G37KT P6SM FEW045 SCT120=



000
FTUS41 KLWX 122113 AAA
TAFDCA
TAF AMD
KDCA 122113Z 1221/1318 19007KT P6SM BKN050 BKN060
     FM122300 18006KT 3SM -SHSN SCT010 BKN050
     FM130400 23005KT P6SM SCT040 BKN050
     FM130700 29015G24KT P6SM BKN070
     FM130800 30020G33KT P6SM SCT060 BKN070
     FM131000 31024G40KT P6SM SCT060 BKN250=



000
FTUS41 KLWX 122113 AAA
TAFBWI
TAF AMD
KBWI 122113Z 1221/1324 19007KT P6SM BKN050 BKN060
     FM122300 19006KT 3SM -SHSN SCT010 BKN050
     FM130500 27008KT P6SM BKN035 BKN060
     FM130800 29019G32KT P6SM BKN050 BKN070
     FM131000 30023G39KT P6SM FEW070 SCT140
     FM131900 30020G32KT P6SM SCT040 BKN080=



000
FTUS41 KLWX 122113 AAA
TAFMRB
TAF AMD
KMRB 122113Z 1221/1318 21006KT 3SM -SHSN SCT010 OVC050
     FM130000 27004KT 3SM -SHSN SCT030 OVC035
     FM130200 27005KT P6SM BKN035 BKN040
     FM130500 29010KT P6SM SCT045 BKN050
     FM130800 30021G35KT P6SM SCT045 BKN060
     FM131200 31022G37KT P6SM FEW045 SCT120=



000
FTUS41 KLWX 122113 AAA
TAFIAD
TAF AMD
KIAD 122113Z 1221/1324 19007KT P6SM OVC050
     FM122300 19006KT 3SM -SHSN SCT010 BKN050
     FM130300 24004KT P6SM SCT040 BKN050
     FM130500 29008KT P6SM BKN050
     FM130800 30019G32KT P6SM SCT060 BKN090
     FM131000 31023G39KT P6SM SCT060 BKN140=



000
FTUS41 KLWX 122113 AAA
TAFCHO
TAF AMD
KCHO 122113Z 1221/1318 20007KT P6SM SCT045 BKN050
     FM130200 26005KT P6SM SCT045 BKN050
     FM130700 30010KT P6SM FEW050 SCT200
     FM131000 31014G22KT P6SM FEW050 SCT250=



000
FTUS41 KLWX 122113 AAA
TAFMTN
TAF AMD
KMTN 122113Z 1221/1318 18007KT P6SM BKN050 OVC070
     FM122300 19006KT 3SM -SHSN SCT010 BKN050
     FM130500 26008KT P6SM BKN035 BKN060
     FM130800 28020G33KT P6SM BKN050 BKN060
     FM131100 30024G39KT P6SM FEW080 SCT090=



000
FTUS41 KLWX 122113 AAA
TAFDCA
TAF AMD
KDCA 122113Z 1221/1318 19007KT P6SM BKN050 BKN060
     FM122300 18006KT 3SM -SHSN SCT010 BKN050
     FM130400 23005KT P6SM SCT040 BKN050
     FM130700 29015G24KT P6SM BKN070
     FM130800 30020G33KT P6SM SCT060 BKN070
     FM131000 31024G40KT P6SM SCT060 BKN250=



000
FTUS41 KLWX 122113 AAA
TAFBWI
TAF AMD
KBWI 122113Z 1221/1324 19007KT P6SM BKN050 BKN060
     FM122300 19006KT 3SM -SHSN SCT010 BKN050
     FM130500 27008KT P6SM BKN035 BKN060
     FM130800 29019G32KT P6SM BKN050 BKN070
     FM131000 30023G39KT P6SM FEW070 SCT140
     FM131900 30020G32KT P6SM SCT040 BKN080=



000
FTUS41 KLWX 122113 AAA
TAFMRB
TAF AMD
KMRB 122113Z 1221/1318 21006KT 3SM -SHSN SCT010 OVC050
     FM130000 27004KT 3SM -SHSN SCT030 OVC035
     FM130200 27005KT P6SM BKN035 BKN040
     FM130500 29010KT P6SM SCT045 BKN050
     FM130800 30021G35KT P6SM SCT045 BKN060
     FM131200 31022G37KT P6SM FEW045 SCT120=



000
FTUS41 KLWX 122113 AAA
TAFIAD
TAF AMD
KIAD 122113Z 1221/1324 19007KT P6SM OVC050
     FM122300 19006KT 3SM -SHSN SCT010 BKN050
     FM130300 24004KT P6SM SCT040 BKN050
     FM130500 29008KT P6SM BKN050
     FM130800 30019G32KT P6SM SCT060 BKN090
     FM131000 31023G39KT P6SM SCT060 BKN140=



000
FTUS41 KLWX 122113 AAA
TAFCHO
TAF AMD
KCHO 122113Z 1221/1318 20007KT P6SM SCT045 BKN050
     FM130200 26005KT P6SM SCT045 BKN050
     FM130700 30010KT P6SM FEW050 SCT200
     FM131000 31014G22KT P6SM FEW050 SCT250=



000
FTUS41 KLWX 122113 AAA
TAFMTN
TAF AMD
KMTN 122113Z 1221/1318 18007KT P6SM BKN050 OVC070
     FM122300 19006KT 3SM -SHSN SCT010 BKN050
     FM130500 26008KT P6SM BKN035 BKN060
     FM130800 28020G33KT P6SM BKN050 BKN060
     FM131100 30024G39KT P6SM FEW080 SCT090=



000
FTUS41 KLWX 121720
TAFCHO
TAF
KCHO 121720Z 1218/1318 20007KT P6SM BKN050
     FM130200 26005KT P6SM BKN050
     FM130700 30009KT P6SM SCT050
     FM131000 31015G30KT P6SM SCT050=



000
FTUS41 KLWX 121720
TAFMTN
TAF
KMTN 121720Z 1218/1318 16005KT P6SM BKN050
     FM130100 20005KT 5SM -SHSN SCT008 OVC050
     FM130400 24006KT P6SM BKN050
     FM130700 28013G20KT P6SM BKN050
     FM130900 29019G35KT P6SM BKN050=



000
FTUS41 KLWX 121720
TAFBWI
TAF
KBWI 121720Z 1218/1324 21006KT P6SM BKN050
     FM130100 20004KT 5SM -SHSN SCT008 OVC050
     FM130400 25004KT P6SM BKN050
     FM130600 28010G20KT P6SM BKN050
     FM131000 30020G35KT P6SM BKN050=



000
FTUS41 KLWX 121720
TAFMRB
TAF
KMRB 121720Z 1218/1318 18007KT P6SM BKN050
     FM122100 21005KT 3SM -SHSN SCT008 OVC050
     FM130100 27005KT P6SM BKN050
     FM130500 29010KT P6SM BKN050
     FM130700 29015G25KT P6SM BKN050
     FM130900 30020G35KT P6SM BKN050=



000
FTUS41 KLWX 121720
TAFDCA
TAF
KDCA 121720Z 1218/1318 20007KT P6SM BKN050
     FM130100 19005KT 5SM -SHSN SCT008 OVC050
     FM130300 25005KT P6SM BKN050
     FM130700 29012G20KT P6SM BKN050
     FM131000 31018G35KT P6SM SCT050=



000
FTUS41 KLWX 121720
TAFIAD
TAF
KIAD 121720Z 1218/1324 20007KT P6SM BKN050
     FM122300 19006KT 5SM -SHSN SCT008 OVC050
     FM130300 26004KT P6SM BKN050
     FM130600 29009KT P6SM BKN050
     FM130700 30013G20KT P6SM BKN050
     FM130900 31020G35KT P6SM BKN050=



000
FTUS41 KLWX 121720
TAFBWI
TAF
KBWI 121720Z 1218/1324 21006KT P6SM BKN050
     FM130100 20004KT 5SM -SHSN SCT008 OVC050
     FM130400 25004KT P6SM BKN050
     FM130600 28010G20KT P6SM BKN050
     FM131000 30020G35KT P6SM BKN050=



000
FTUS41 KLWX 121720
TAFMTN
TAF
KMTN 121720Z 1218/1318 16005KT P6SM BKN050
     FM130100 20005KT 5SM -SHSN SCT008 OVC050
     FM130400 24006KT P6SM BKN050
     FM130700 28013G20KT P6SM BKN050
     FM130900 29019G35KT P6SM BKN050=



000
FTUS41 KLWX 121720
TAFCHO
TAF
KCHO 121720Z 1218/1318 20007KT P6SM BKN050
     FM130200 26005KT P6SM BKN050
     FM130700 30009KT P6SM SCT050
     FM131000 31015G30KT P6SM SCT050=



000
FTUS41 KLWX 121720
TAFDCA
TAF
KDCA 121720Z 1218/1318 20007KT P6SM BKN050
     FM130100 19005KT 5SM -SHSN SCT008 OVC050
     FM130300 25005KT P6SM BKN050
     FM130700 29012G20KT P6SM BKN050
     FM131000 31018G35KT P6SM SCT050=



000
FTUS41 KLWX 121720
TAFMRB
TAF
KMRB 121720Z 1218/1318 18007KT P6SM BKN050
     FM122100 21005KT 3SM -SHSN SCT008 OVC050
     FM130100 27005KT P6SM BKN050
     FM130500 29010KT P6SM BKN050
     FM130700 29015G25KT P6SM BKN050
     FM130900 30020G35KT P6SM BKN050=



000
FTUS41 KLWX 121720
TAFIAD
TAF
KIAD 121720Z 1218/1324 20007KT P6SM BKN050
     FM122300 19006KT 5SM -SHSN SCT008 OVC050
     FM130300 26004KT P6SM BKN050
     FM130600 29009KT P6SM BKN050
     FM130700 30013G20KT P6SM BKN050
     FM130900 31020G35KT P6SM BKN050=



000
FTUS41 KLWX 121455 AAA
TAFDCA
TAF AMD
KDCA 121455Z 1215/1312 20006KT P6SM BKN090 OVC130
     FM130200 26006KT P6SM -SHSN BKN040
     FM130700 30011G22KT P6SM SCT040
     FM131100 31015G30KT P6SM SCT040=



000
FTUS41 KLWX 121455 AAA
TAFIAD
TAF AMD
KIAD 121455Z 1215/1318 19006KT P6SM BKN090 OVC130
     FM130100 26005KT P6SM -SHSN BKN040
     FM130600 30011G23KT P6SM BKN040
     FM131000 31015G30KT P6SM SCT040
     FM131400 31019G38KT P6SM SCT040=



000
FTUS41 KLWX 121455 AAA
TAFBWI
TAF AMD
KBWI 121455Z 1215/1318 21004KT P6SM BKN090 OVC130
     FM130300 27007KT P6SM -SHSN BKN040
     FM130700 29012G25KT P6SM SCT040
     FM131200 30016G33KT P6SM SCT040=



000
FTUS41 KLWX 121455 AAA
TAFBWI
TAF AMD
KBWI 121455Z 1215/1318 21004KT P6SM BKN090 OVC130
     FM130300 27007KT P6SM -SHSN BKN040
     FM130700 29012G25KT P6SM SCT040
     FM131200 30016G33KT P6SM SCT040=



000
FTUS41 KLWX 121455 AAA
TAFDCA
TAF AMD
KDCA 121455Z 1215/1312 20006KT P6SM BKN090 OVC130
     FM130200 26006KT P6SM -SHSN BKN040
     FM130700 30011G22KT P6SM SCT040
     FM131100 31015G30KT P6SM SCT040=



000
FTUS41 KLWX 121455 AAA
TAFIAD
TAF AMD
KIAD 121455Z 1215/1318 19006KT P6SM BKN090 OVC130
     FM130100 26005KT P6SM -SHSN BKN040
     FM130600 30011G23KT P6SM BKN040
     FM131000 31015G30KT P6SM SCT040
     FM131400 31019G38KT P6SM SCT040=



000
FTUS41 KLWX 121127
TAFMRB
TAF
KMRB 121127Z 1212/1312 VRB03KT P6SM BKN200
     FM122000 21007KT 3SM -SHSN BKN050
     FM130200 27005KT P6SM BKN045
     FM130500 29011G22KT P6SM BKN040
     FM130900 30015G30KT P6SM BKN045=



000
FTUS41 KLWX 121127
TAFBWI
TAF
KBWI 121127Z 1212/1318 28004KT P6SM BKN200
     FM121600 21004KT P6SM BKN100
     FM130300 27007KT P6SM -SHSN BKN040
     FM130700 29012G25KT P6SM SCT040
     FM131200 30016G33KT P6SM SCT040=



000
FTUS41 KLWX 121127
TAFCHO
TAF
KCHO 121127Z 1212/1312 00000KT P6SM BKN100
     FM121600 19006KT P6SM OVC060
     FM130200 25005KT P6SM BKN070
     FM130600 29007KT P6SM SCT050
     FM131000 31010G21KT P6SM SCT050=



000
FTUS41 KLWX 121127
TAFDCA
TAF
KDCA 121127Z 1212/1312 00000KT P6SM BKN200
     FM121800 20006KT P6SM BKN060
     FM130200 26006KT P6SM -SHSN BKN040
     FM130700 30011G22KT P6SM SCT040
     FM131100 31015G30KT P6SM SCT040=



000
FTUS41 KLWX 121127
TAFBWI
TAF
KBWI 121127Z 1212/1318 28004KT P6SM BKN200
     FM121600 21004KT P6SM BKN100
     FM130300 27007KT P6SM -SHSN BKN040
     FM130700 29012G25KT P6SM SCT040
     FM131200 30016G33KT P6SM SCT040=



000
FTUS41 KLWX 121127
TAFIAD
TAF
KIAD 121127Z 1212/1318 00000KT P6SM BKN200
     FM121600 19006KT P6SM BKN090
     FM130100 26005KT P6SM -SHSN BKN040
     FM130600 30011G23KT P6SM BKN040
     FM131000 31015G30KT P6SM SCT040
     FM131400 31019G38KT P6SM SCT040=



000
FTUS41 KLWX 121127
TAFMTN
TAF
KMTN 121127Z 1212/1312 29005KT P6SM SCT200
     FM121600 23004KT P6SM BKN150
     FM130300 27008KT P6SM -SHSN BKN045
     FM130700 28013G25KT P6SM SCT050=



000
FTUS41 KLWX 121127
TAFIAD
TAF
KIAD 121127Z 1212/1318 00000KT P6SM BKN200
     FM121600 19006KT P6SM BKN090
     FM130100 26005KT P6SM -SHSN BKN040
     FM130600 30011G23KT P6SM BKN040
     FM131000 31015G30KT P6SM SCT040
     FM131400 31019G38KT P6SM SCT040=



000
FTUS41 KLWX 121127
TAFCHO
TAF
KCHO 121127Z 1212/1312 00000KT P6SM BKN100
     FM121600 19006KT P6SM OVC060
     FM130200 25005KT P6SM BKN070
     FM130600 29007KT P6SM SCT050
     FM131000 31010G21KT P6SM SCT050=



000
FTUS41 KLWX 121127
TAFDCA
TAF
KDCA 121127Z 1212/1312 00000KT P6SM BKN200
     FM121800 20006KT P6SM BKN060
     FM130200 26006KT P6SM -SHSN BKN040
     FM130700 30011G22KT P6SM SCT040
     FM131100 31015G30KT P6SM SCT040=



000
FTUS41 KLWX 121127
TAFMRB
TAF
KMRB 121127Z 1212/1312 VRB03KT P6SM BKN200
     FM122000 21007KT 3SM -SHSN BKN050
     FM130200 27005KT P6SM BKN045
     FM130500 29011G22KT P6SM BKN040
     FM130900 30015G30KT P6SM BKN045=



000
FTUS41 KLWX 121127
TAFMTN
TAF
KMTN 121127Z 1212/1312 29005KT P6SM SCT200
     FM121600 23004KT P6SM BKN150
     FM130300 27008KT P6SM -SHSN BKN045
     FM130700 28013G25KT P6SM SCT050=



000
FTUS41 KLWX 120845 AAA
TAFIAD
TAF AMD
KIAD 120845Z 1209/1312 00000KT P6SM FEW140 SCT250
     FM121500 19005KT P6SM BKN100
     FM130300 26005KT P6SM BKN035
     FM130600 30011G23KT P6SM BKN040
     FM131000 31015G30KT P6SM BKN040=



000
FTUS41 KLWX 120845 AAA
TAFDCA
TAF AMD
KDCA 120845Z 1209/1306 31004KT P6SM FEW150 SCT250
     FM121400 21004KT P6SM BKN200
     FM130500 28007KT P6SM BKN040=



000
FTUS41 KLWX 120845 AAA
TAFBWI
TAF AMD
KBWI 120845Z 1209/1312 28004KT P6SM FEW150 SCT200
     FM121600 22005KT P6SM BKN100
     FM130600 28011G22KT P6SM BKN040
     FM130800 29012G25KT P6SM SCT040=



000
FTUS41 KLWX 120528
TAFBWI
TAF
KBWI 120528Z 1206/1312 29007KT P6SM FEW250
     FM121500 23004KT P6SM BKN200
     FM130600 28009KT P6SM BKN040
     FM130700 28011G18KT P6SM BKN040
     FM130800 29012G20KT P6SM SCT040=



000
FTUS41 KLWX 120528
TAFCHO
TAF
KCHO 120528Z 1206/1306 00000KT P6SM SCT200
     FM121200 00000KT P6SM BKN100
     FM121600 18006KT P6SM OVC060
     FM130200 25005KT P6SM BKN070=



000
FTUS41 KLWX 120528
TAFMRB
TAF
KMRB 120528Z 1206/1306 28005KT P6SM FEW250
     FM121200 21004KT P6SM BKN200
     FM122000 21007KT 3SM -SHSN BKN050
     FM122300 24005KT 5SM -SHSN OVC045
     FM130200 27005KT P6SM BKN045
     FM130500 29009KT P6SM BKN040=



000
FTUS41 KLWX 120528
TAFDCA
TAF
KDCA 120528Z 1206/1306 30006KT P6SM FEW250
     FM121400 21004KT P6SM BKN200
     FM130500 28007KT P6SM BKN040=



000
FTUS41 KLWX 120528
TAFMTN
TAF
KMTN 120528Z 1206/1306 NIL=



000
FTUS41 KLWX 120528
TAFIAD
TAF
KIAD 120528Z 1206/1312 29005KT P6SM FEW250
     FM120900 00000KT P6SM FEW140 SCT250
     FM121500 19005KT P6SM BKN100
     FM130300 26005KT P6SM BKN035
     FM130600 29009KT P6SM BKN040
     FM130800 30013G21KT P6SM BKN040
     FM131100 31015G25KT P6SM SCT040=



000
FTUS41 KLWX 120528
TAFCHO
TAF
KCHO 120528Z 1206/1306 00000KT P6SM SCT200
     FM121200 00000KT P6SM BKN100
     FM121600 18006KT P6SM OVC060
     FM130200 25005KT P6SM BKN070=



000
FTUS41 KLWX 120528
TAFMTN
TAF
KMTN 120528Z 1206/1306 NIL=



000
FTUS41 KLWX 120528
TAFIAD
TAF
KIAD 120528Z 1206/1312 29005KT P6SM FEW250
     FM120900 00000KT P6SM FEW140 SCT250
     FM121500 19005KT P6SM BKN100
     FM130300 26005KT P6SM BKN035
     FM130600 29009KT P6SM BKN040
     FM130800 30013G21KT P6SM BKN040
     FM131100 31015G25KT P6SM SCT040=



000
FTUS41 KLWX 120528
TAFBWI
TAF
KBWI 120528Z 1206/1312 29007KT P6SM FEW250
     FM121500 23004KT P6SM BKN200
     FM130600 28009KT P6SM BKN040
     FM130700 28011G18KT P6SM BKN040
     FM130800 29012G20KT P6SM SCT040=



000
FTUS41 KLWX 120528
TAFMRB
TAF
KMRB 120528Z 1206/1306 28005KT P6SM FEW250
     FM121200 21004KT P6SM BKN200
     FM122000 21007KT 3SM -SHSN BKN050
     FM122300 24005KT 5SM -SHSN OVC045
     FM130200 27005KT P6SM BKN045
     FM130500 29009KT P6SM BKN040=



000
FTUS41 KLWX 120528
TAFDCA
TAF
KDCA 120528Z 1206/1306 30006KT P6SM FEW250
     FM121400 21004KT P6SM BKN200
     FM130500 28007KT P6SM BKN040=



000
FTUS41 KLWX 112322
TAFDCA
TAF
KDCA 112322Z 1200/1224 30010G17KT P6SM FEW250
     FM120200 30009KT P6SM SKC
     FM120700 30005KT P6SM FEW150 FEW250
     FM121300 23004KT P6SM SCT110 BKN250=



000
FTUS41 KLWX 112322
TAFMTN
TAF
KMTN 112322Z 1200/1224 29014G22KT P6SM FEW250
     FM120400 29010KT P6SM SKC
     FM120900 29006KT P6SM FEW150 FEW250
     FM121500 23004KT P6SM SCT110 BKN250
      AMD NOT SKED 1202/1212=



000
FTUS41 KLWX 112322
TAFDCA
TAF
KDCA 112322Z 1200/1224 30010G17KT P6SM FEW250
     FM120200 30009KT P6SM SKC
     FM120700 30005KT P6SM FEW150 FEW250
     FM121300 23004KT P6SM SCT110 BKN250=



000
FTUS41 KLWX 112322
TAFIAD
TAF
KIAD 112322Z 1200/1306 30009KT P6SM FEW250
     FM120600 29005KT P6SM FEW200 FEW250
     FM121300 20004KT P6SM SCT110 BKN250
     FM130300 26005KT P6SM SCT045 BKN050=



000
FTUS41 KLWX 112322
TAFBWI
TAF
KBWI 112322Z 1200/1306 29012G19KT P6SM FEW250
     FM120300 29009KT P6SM SKC
     FM120900 28005KT P6SM FEW150 SCT250
     FM121600 22006KT P6SM SCT100 BKN150=



000
FTUS41 KLWX 112322
TAFCHO
TAF
KCHO 112322Z 1200/1224 31006KT P6SM FEW250
     FM120600 00000KT P6SM FEW150 SCT250
     FM121200 VRB03KT P6SM BKN090 BKN100
     FM121800 20007KT P6SM BKN050 BKN060=



000
FTUS41 KLWX 112322
TAFMRB
TAF
KMRB 112322Z 1200/1224 29009KT P6SM FEW150 SCT250
     FM120600 28005KT P6SM FEW200 FEW250
     FM121100 22004KT P6SM SCT130 BKN250
     FM122000 21007KT 4SM -SHSN SCT050 BKN060=



000
FTUS41 KLWX 112322
TAFMTN
TAF
KMTN 112322Z 1200/1224 29014G22KT P6SM FEW250
     FM120400 29010KT P6SM SKC
     FM120900 29006KT P6SM FEW150 FEW250
     FM121500 23004KT P6SM SCT110 BKN250
      AMD NOT SKED 1202/1212=



000
FTUS41 KLWX 112322
TAFMRB
TAF
KMRB 112322Z 1200/1224 29009KT P6SM FEW150 SCT250
     FM120600 28005KT P6SM FEW200 FEW250
     FM121100 22004KT P6SM SCT130 BKN250
     FM122000 21007KT 4SM -SHSN SCT050 BKN060=



000
FTUS41 KLWX 112322
TAFBWI
TAF
KBWI 112322Z 1200/1306 29012G19KT P6SM FEW250
     FM120300 29009KT P6SM SKC
     FM120900 28005KT P6SM FEW150 SCT250
     FM121600 22006KT P6SM SCT100 BKN150=



000
FTUS41 KLWX 112322
TAFCHO
TAF
KCHO 112322Z 1200/1224 31006KT P6SM FEW250
     FM120600 00000KT P6SM FEW150 SCT250
     FM121200 VRB03KT P6SM BKN090 BKN100
     FM121800 20007KT P6SM BKN050 BKN060=



000
FTUS41 KLWX 112322
TAFIAD
TAF
KIAD 112322Z 1200/1306 30009KT P6SM FEW250
     FM120600 29005KT P6SM FEW200 FEW250
     FM121300 20004KT P6SM SCT110 BKN250
     FM130300 26005KT P6SM SCT045 BKN050=



000
FTUS41 KLWX 112116 AAA
TAFCHO
TAF AMD
KCHO 112116Z 1121/1218 30011G18KT P6SM FEW050
     FM112300 31007KT P6SM FEW250
     FM120400 VRB03KT P6SM FEW250
     FM121100 VRB03KT P6SM BKN110=



000
FTUS41 KLWX 112116 AAA
TAFBWI
TAF AMD
KBWI 112116Z 1121/1224 29017G27KT P6SM BKN050
     FM120000 29011G19KT P6SM FEW250
     FM120600 29007KT P6SM FEW250
     FM121400 24004KT P6SM BKN110
     FM121900 21008KT P6SM BKN060=



000
FTUS41 KLWX 112116 AAA
TAFDCA
TAF AMD
KDCA 112116Z 1121/1218 29016G28KT P6SM SCT060
     FM120000 30010KT P6SM FEW250
     FM120600 30006KT P6SM FEW200
     FM121200 24004KT P6SM BKN110=



000
FTUS41 KLWX 112116 AAA
TAFMRB
TAF AMD
KMRB 112116Z 1121/1218 28017G28KT P6SM BKN045
     FM120000 29009KT P6SM SCT250
     FM120600 28005KT P6SM FEW150
     FM121100 22004KT P6SM BKN120=



000
FTUS41 KLWX 112116 AAA
TAFIAD
TAF AMD
KIAD 112116Z 1121/1224 30017G26KT P6SM SCT050
     FM120000 30008KT P6SM FEW250
     FM120800 27004KT P6SM SCT150
     FM121200 VRB03KT P6SM BKN110
     FM121800 20007KT P6SM BKN060=



000
FTUS41 KLWX 112116 AAA
TAFMTN
TAF AMD
KMTN 112116Z 1121/1218 28017G27KT P6SM BKN050
     FM120000 29012G20KT P6SM FEW250
     FM120600 29009KT P6SM SKC
     FM121000 28005KT P6SM SCT140
     FM121500 24005KT P6SM BKN100=



000
FTUS41 KLWX 111732
TAFIAD
TAF
KIAD 111732Z 1118/1224 30017G26KT P6SM SCT050
     FM120000 30008KT P6SM FEW250
     FM120800 27004KT P6SM SCT150
     FM121200 VRB03KT P6SM BKN110
     FM121800 20007KT P6SM BKN060=



000
FTUS41 KLWX 111732
TAFCHO
TAF
KCHO 111732Z 1118/1218 30011G18KT P6SM FEW050
     FM112300 31007KT P6SM FEW250
     FM120400 VRB03KT P6SM FEW250
     FM121100 VRB03KT P6SM BKN110=



000
FTUS41 KLWX 111732
TAFBWI
TAF
KBWI 111732Z 1118/1224 29017G27KT P6SM BKN050
     FM120000 29011G19KT P6SM FEW250
     FM120600 29007KT P6SM FEW250
     FM121400 24004KT P6SM BKN110
     FM121900 21008KT P6SM BKN060=



000
FTUS41 KLWX 111732
TAFMTN
TAF
KMTN 111732Z 1118/1218 28017G27KT P6SM BKN050
     FM120000 29012G20KT P6SM FEW250
     FM120600 29009KT P6SM SKC
     FM121000 28005KT P6SM SCT140
     FM121500 24005KT P6SM BKN100=



000
FTUS41 KLWX 111732
TAFMRB
TAF
KMRB 111732Z 1118/1218 28017G28KT P6SM BKN045
     FM120000 29009KT P6SM SCT250
     FM120600 28005KT P6SM FEW150
     FM121100 22004KT P6SM BKN120=



000
FTUS41 KLWX 111732
TAFDCA
TAF
KDCA 111732Z 1118/1218 29016G28KT P6SM SCT060
     FM120000 30010KT P6SM FEW250
     FM120600 30006KT P6SM FEW200
     FM121200 24004KT P6SM BKN110=



000
FTUS41 KLWX 111515 AAA
TAFBWI
TAF AMD
KBWI 111515Z 1115/1218 28012G26KT P6SM SCT045
     FM120200 29009KT P6SM FEW250
     FM121200 25005KT P6SM SCT200=



000
FTUS41 KLWX 111515 AAA
TAFIAD
TAF AMD
KIAD 111515Z 1115/1218 29013G22KT P6SM BKN050
     FM111900 29017G26KT P6SM SCT050
     FM120100 29009KT P6SM FEW250
     FM120800 VRB05KT P6SM SCT200=



000
FTUS41 KLWX 111515 AAA
TAFDCA
TAF AMD
KDCA 111515Z 1115/1212 29016G25KT P6SM SCT050
     FM120100 30011KT P6SM FEW250
     FM121000 25005KT P6SM SCT200=



000
FTUS41 KLWX 111120
TAFBWI
TAF
KBWI 111120Z 1112/1218 27009KT P6SM SCT150
     FM111300 28012G21KT P6SM FEW040 SCT100
     FM111600 28016G26KT P6SM SCT040
     FM120200 29009KT P6SM FEW250
     FM121200 25005KT P6SM SCT200=



000
FTUS41 KLWX 111120
TAFMRB
TAF
KMRB 111120Z 1112/1212 26007KT P6SM SCT050
     FM111400 30016G25KT P6SM BKN050
     FM120000 30010KT P6SM FEW250
     FM120700 VRB03KT P6SM SCT200=



000
FTUS41 KLWX 111120
TAFMTN
TAF
KMTN 111120Z 1112/1212 26015G25KT P6SM SCT150
     FM120400 29009KT P6SM FEW250=



000
FTUS41 KLWX 111120
TAFDCA
TAF
KDCA 111120Z 1112/1212 27009KT P6SM FEW050
     FM111400 29016G25KT P6SM FEW050 SCT150
     FM120100 30011KT P6SM FEW250
     FM121000 25005KT P6SM SCT200=



000
FTUS41 KLWX 111120
TAFIAD
TAF
KIAD 111120Z 1112/1218 27008KT P6SM SCT150
     FM111400 29013G22KT P6SM FEW050 SCT100
     FM111700 29017G26KT P6SM SCT050
     FM120100 29009KT P6SM FEW250
     FM120800 VRB05KT P6SM SCT200=



000
FTUS41 KLWX 111120
TAFCHO
TAF
KCHO 111120Z 1112/1212 28008KT P6SM FEW100
     FM111600 29011G18KT P6SM FEW250
     FM112200 29005KT P6SM FEW250
     FM120400 VRB04KT P6SM BKN100=



000
FTUS41 KLWX 110844 AAA
TAFBWI
TAF AMD
KBWI 110844Z 1109/1212 28012G21KT P6SM SCT100
     FM111600 28016G26KT P6SM SCT040
     FM120200 29010KT P6SM FEW250=



000
FTUS41 KLWX 110844 AAA
TAFDCA
TAF AMD
KDCA 110844Z 1109/1206 29012G20KT P6SM SCT150
     FM111600 29015G25KT P6SM SCT050
     FM120200 30011KT P6SM FEW250=



000
FTUS41 KLWX 110843 AAA
TAFIAD
TAF AMD
KIAD 110843Z 1109/1212 29012G20KT P6SM SCT100
     FM111700 29016G26KT P6SM SCT050
     FM120100 31009KT P6SM FEW250=



000
FTUS41 KLWX 110520
TAFMTN
TAF
KMTN 110520Z 1106/1206 NIL=



000
FTUS41 KLWX 110520
TAFIAD
TAF
KIAD 110520Z 1106/1212 29012G20KT P6SM SCT100
     FM112000 29016G26KT P6SM SCT050
     FM120100 31009KT P6SM FEW250=



000
FTUS41 KLWX 110520
TAFDCA
TAF
KDCA 110520Z 1106/1206 29012G20KT P6SM FEW100
     FM111600 29015G25KT P6SM FEW050
     FM120200 30011KT P6SM FEW250=



000
FTUS41 KLWX 110520
TAFMRB
TAF
KMRB 110520Z 1106/1206 28013G20KT P6SM SCT100
     FM111500 30016G25KT P6SM BKN050
     FM120000 30010KT P6SM FEW250=



000
FTUS41 KLWX 110520
TAFIAD
TAF
KIAD 110520Z 1106/1212 29012G20KT P6SM SCT100
     FM112000 29016G26KT P6SM SCT050
     FM120100 31009KT P6SM FEW250=



000
FTUS41 KLWX 110520
TAFMRB
TAF
KMRB 110520Z 1106/1206 28013G20KT P6SM SCT100
     FM111500 30016G25KT P6SM BKN050
     FM120000 30010KT P6SM FEW250=



000
FTUS41 KLWX 110520
TAFBWI
TAF
KBWI 110520Z 1106/1212 28012G21KT P6SM SCT100
     FM111700 28016G26KT P6SM SCT050
     FM120200 29010KT P6SM FEW250=



000
FTUS41 KLWX 110520
TAFCHO
TAF
KCHO 110520Z 1106/1206 28008KT P6SM FEW100
     FM111600 29011G18KT P6SM FEW250
     FM112200 29005KT P6SM FEW250=



000
FTUS41 KLWX 110520
TAFBWI
TAF
KBWI 110520Z 1106/1212 28012G21KT P6SM SCT100
     FM111700 28016G26KT P6SM SCT050
     FM120200 29010KT P6SM FEW250=



000
FTUS41 KLWX 110520
TAFCHO
TAF
KCHO 110520Z 1106/1206 28008KT P6SM FEW100
     FM111600 29011G18KT P6SM FEW250
     FM112200 29005KT P6SM FEW250=



000
FTUS41 KLWX 110520
TAFDCA
TAF
KDCA 110520Z 1106/1206 29012G20KT P6SM FEW100
     FM111600 29015G25KT P6SM FEW050
     FM120200 30011KT P6SM FEW250=



000
FTUS41 KLWX 110520
TAFMTN
TAF
KMTN 110520Z 1106/1206 NIL=



000
FTUS41 KLWX 102320
TAFCHO
TAF
KCHO 102320Z 1100/1124 29009G19KT P6SM BKN070 BKN080
     FM110200 28008KT P6SM FEW070 SCT250=



000
FTUS41 KLWX 102320
TAFDCA
TAF
KDCA 102320Z 1100/1124 30012G22KT P6SM BKN040 BKN060
     FM110700 29013G21KT P6SM FEW200 SCT250=



000
FTUS41 KLWX 102320
TAFIAD
TAF
KIAD 102320Z 1100/1206 30011G18KT P6SM BKN060
     FM110600 29012G19KT P6SM FEW150 SCT250
     FM120100 30009KT P6SM FEW250=



000
FTUS41 KLWX 102320
TAFCHO
TAF
KCHO 102320Z 1100/1124 29009G19KT P6SM BKN070 BKN080
     FM110200 28008KT P6SM FEW070 SCT250=



000
FTUS41 KLWX 102320
TAFBWI
TAF
KBWI 102320Z 1100/1206 29012G19KT P6SM SCT060 BKN070
     FM110700 28013G21KT P6SM FEW080 SCT120
     FM120400 29009KT P6SM SKC=



000
FTUS41 KLWX 102320
TAFMTN
TAF
KMTN 102320Z 1100/1124 29012G19KT P6SM BKN060
     FM110800 28013G21KT P6SM FEW080 SCT110
      AMD NOT SKED 1102/1112=



000
FTUS41 KLWX 102320
TAFMRB
TAF
KMRB 102320Z 1100/1124 28010G20KT P6SM SCT045 BKN060
     FM110600 28011G18KT P6SM FEW100 SCT250
     FM111400 29014G23KT P6SM SCT045 BKN100
     FM111700 30016G26KT P6SM FEW045 SCT080
     FM112300 30012G19KT P6SM FEW045 SCT200=



000
FTUS41 KLWX 102320
TAFDCA
TAF
KDCA 102320Z 1100/1124 30012G22KT P6SM BKN040 BKN060
     FM110700 29013G21KT P6SM FEW200 SCT250=



000
FTUS41 KLWX 102320
TAFMTN
TAF
KMTN 102320Z 1100/1124 29012G19KT P6SM BKN060
     FM110800 28013G21KT P6SM FEW080 SCT110
      AMD NOT SKED 1102/1112=



000
FTUS41 KLWX 102320
TAFMRB
TAF
KMRB 102320Z 1100/1124 28010G20KT P6SM SCT045 BKN060
     FM110600 28011G18KT P6SM FEW100 SCT250
     FM111400 29014G23KT P6SM SCT045 BKN100
     FM111700 30016G26KT P6SM FEW045 SCT080
     FM112300 30012G19KT P6SM FEW045 SCT200=



000
FTUS41 KLWX 102320
TAFBWI
TAF
KBWI 102320Z 1100/1206 29012G19KT P6SM SCT060 BKN070
     FM110700 28013G21KT P6SM FEW080 SCT120
     FM120400 29009KT P6SM SKC=



000
FTUS41 KLWX 102320
TAFIAD
TAF
KIAD 102320Z 1100/1206 30011G18KT P6SM BKN060
     FM110600 29012G19KT P6SM FEW150 SCT250
     FM120100 30009KT P6SM FEW250=



000
FTUS41 KLWX 102115 AAA
TAFBWI
TAF AMD
KBWI 102115Z 1021/1124 28016G22KT P6SM BKN045 BKN100
     FM110500 28012G20KT P6SM BKN090
     FM110800 28013G22KT P6SM SCT050
     FM112200 29015G22KT P6SM SCT250=



000
FTUS41 KLWX 102115 AAB
TAFIAD
TAF AMD
KIAD 102115Z 1021/1124 31013G21KT P6SM BKN050
     FM110600 29013G21KT P6SM SCT090=



000
FTUS41 KLWX 102115 AAA
TAFMTN
TAF AMD
KMTN 102115Z 1021/1118 28012KT P6SM BKN090
     FM110900 28013G22KT P6SM SCT050=



000
FTUS41 KLWX 102115 AAA
TAFCHO
TAF AMD
KCHO 102115Z 1021/1118 27009KT P6SM SCT050
     FM110200 28007KT P6SM SCT090=



000
FTUS41 KLWX 102115 AAA
TAFMRB
TAF AMD
KMRB 102115Z 1021/1118 26016G23KT P6SM BKN045
     FM110200 28010G18KT P6SM BKN050
     FM110600 28012G19KT P6SM SCT250
     FM110900 28012G19KT P6SM SCT050=



000
FTUS41 KLWX 102115 AAA
TAFDCA
TAF AMD
KDCA 102115Z 1021/1118 29014G20KT P6SM SCT050 SCT110
     FM110800 29013G21KT P6SM SCT250
     FM111000 29013G21KT P6SM SCT050=



000
FTUS41 KLWX 101918 AAA
TAFIAD
TAF AMD
KIAD 101918Z 1019/1124 31013G23KT P6SM BKN050
     FM110600 29013G21KT P6SM SCT090=



000
FTUS41 KLWX 101728
TAFMRB
TAF
KMRB 101728Z 1018/1118 28016G23KT P6SM BKN045
     FM110200 28010G18KT P6SM BKN050
     FM110600 28012G19KT P6SM SCT250
     FM110900 28012G19KT P6SM SCT050=



000
FTUS41 KLWX 101728
TAFDCA
TAF
KDCA 101728Z 1018/1118 29014G22KT P6SM SCT050 SCT110
     FM110800 29013G21KT P6SM SCT250
     FM111000 29013G21KT P6SM SCT050=



000
FTUS41 KLWX 101728
TAFMTN
TAF
KMTN 101728Z 1018/1118 26016G23KT P6SM SCT040 BKN180
     FM101900 28012KT P6SM BKN090
     FM110900 28013G22KT P6SM SCT050=



000
FTUS41 KLWX 101728
TAFIAD
TAF
KIAD 101728Z 1018/1124 31017G22KT P6SM SCT045
     FM110600 29013G21KT P6SM SCT090=



000
FTUS41 KLWX 101728
TAFCHO
TAF
KCHO 101728Z 1018/1118 24007KT P6SM SCT050
     FM110200 28007KT P6SM SCT090=



000
FTUS41 KLWX 101728
TAFBWI
TAF
KBWI 101728Z 1018/1124 28016G22KT P6SM BKN045 BKN100
     FM110500 28012G20KT P6SM BKN090
     FM110800 28013G22KT P6SM SCT050
     FM112200 29015G22KT P6SM SCT250=



000
FTUS41 KLWX 101503 AAA
TAFIAD
TAF AMD
KIAD 101503Z 1015/1118 30017G22KT P6SM BKN045
     FM102000 28012KT P6SM BKN050
     FM110300 29014G22KT P6SM SCT250=



000
FTUS41 KLWX 101503 AAA
TAFDCA
TAF AMD
KDCA 101503Z 1015/1112 31015G25KT P6SM FEW060 BKN100
     FM102100 29013G22KT P6SM BKN040
     FM110400 28016G25KT P6SM SCT250=



000
FTUS41 KLWX 101503 AAA
TAFBWI
TAF AMD
KBWI 101503Z 1015/1118 29016G27KT P6SM SCT040 BKN090 BKN160
     FM102300 28012KT P6SM SCT060
     FM110400 28014G23KT P6SM SCT080=



000
FTUS41 KLWX 101136
TAFIAD
TAF
KIAD 101136Z 1012/1118 29013G22KT P6SM BKN070
     FM102000 28012KT P6SM BKN050
     FM110300 29014G22KT P6SM SCT250=



000
FTUS41 KLWX 101136
TAFMTN
TAF
KMTN 101136Z 1012/1112 26008KT P6SM OVC100
     FM101300 28015G23KT P6SM BKN040
     FM102000 28011KT P6SM SCT060
     FM110400 28014G23KT P6SM SCT080=



000
FTUS41 KLWX 101136
TAFBWI
TAF
KBWI 101136Z 1012/1118 29011KT P6SM OVC070
     FM101400 28014G22KT P6SM BKN040
     FM102300 28012KT P6SM SCT060
     FM110400 28014G23KT P6SM SCT080=



000
FTUS41 KLWX 101136
TAFMRB
TAF
KMRB 101136Z 1012/1112 27013KT P6SM OVC040
     FM101500 28013G22KT P6SM OVC040
     FM102100 28011KT P6SM BKN030
     FM110400 28012G21KT P6SM SCT090=



000
FTUS41 KLWX 101136
TAFCHO
TAF
KCHO 101136Z 1012/1112 28006KT P6SM OVC060
     FM101600 26010KT P6SM SCT080=



000
FTUS41 KLWX 101136
TAFDCA
TAF
KDCA 101136Z 1012/1112 30012KT P6SM OVC080
     FM101400 28012G21KT P6SM BKN070
     FM102100 29013G22KT P6SM BKN040
     FM110400 28016G25KT P6SM SCT250=



000
FTUS41 KLWX 101136
TAFMTN
TAF
KMTN 101136Z 1012/1112 26008KT P6SM OVC100
     FM101300 28015G23KT P6SM BKN040
     FM102000 28011KT P6SM SCT060
     FM110400 28014G23KT P6SM SCT080=



000
FTUS41 KLWX 101136
TAFDCA
TAF
KDCA 101136Z 1012/1112 30012KT P6SM OVC080
     FM101400 28012G21KT P6SM BKN070
     FM102100 29013G22KT P6SM BKN040
     FM110400 28016G25KT P6SM SCT250=



000
FTUS41 KLWX 101136
TAFIAD
TAF
KIAD 101136Z 1012/1118 29013G22KT P6SM BKN070
     FM102000 28012KT P6SM BKN050
     FM110300 29014G22KT P6SM SCT250=



000
FTUS41 KLWX 101136
TAFMRB
TAF
KMRB 101136Z 1012/1112 27013KT P6SM OVC040
     FM101500 28013G22KT P6SM OVC040
     FM102100 28011KT P6SM BKN030
     FM110400 28012G21KT P6SM SCT090=



000
FTUS41 KLWX 101136
TAFBWI
TAF
KBWI 101136Z 1012/1118 29011KT P6SM OVC070
     FM101400 28014G22KT P6SM BKN040
     FM102300 28012KT P6SM SCT060
     FM110400 28014G23KT P6SM SCT080=



000
FTUS41 KLWX 101136
TAFCHO
TAF
KCHO 101136Z 1012/1112 28006KT P6SM OVC060
     FM101600 26010KT P6SM SCT080=



000
FTUS41 KLWX 100900 AAC
TAFBWI
TAF AMD
KBWI 100900Z 1009/1112 29013G20KT P6SM OVC060
      TEMPO 1009/1010 3SM -SHSN OVC025
     FM101900 28014G22KT P6SM BKN040
     FM102200 28012KT P6SM SCT060
     FM110400 28014G21KT P6SM SCT250=



000
FTUS41 KLWX 100900 AAC
TAFBWI
TAF AMD
KBWI 100900Z 1009/1112 29013G20KT P6SM OVC060
      TEMPO 1009/1010 3SM -SHSN OVC025
     FM101900 28014G22KT P6SM BKN040
     FM102200 28012KT P6SM SCT060
     FM110400 28014G21KT P6SM SCT250=



000
FTUS41 KLWX 100900 AAC
TAFDCA
TAF AMD
KDCA 100900Z 1009/1106 28007KT P6SM OVC060
     FM101400 28011G19KT P6SM BKN070
     FM102100 29013G22KT P6SM BKN040=



000
FTUS41 KLWX 100859 AAA
TAFIAD
TAF AMD
KIAD 100859Z 1009/1112 28009KT P6SM BKN050
     FM101400 29012G20KT P6SM BKN070
     FM102000 28013G22KT P6SM BKN040
     FM102300 29011KT P6SM BKN060
     FM110500 29014G22KT P6SM SCT250=



000
FTUS41 KLWX 100759 AAB
TAFDCA
TAF AMD
KDCA 100759Z 1008/1106 28007KT P6SM OVC045
      TEMPO 1008/1012 32012G21KT 4SM -SHSN
     FM101400 28011G19KT P6SM BKN070
     FM102100 29013G22KT P6SM BKN040=



000
FTUS41 KLWX 100758 AAB
TAFBWI
TAF AMD
KBWI 100758Z 1008/1112 29013G20KT P6SM VCSH OVC060
      TEMPO 1008/1010 3SM -SHSN OVC030
     FM101900 28014G22KT P6SM BKN040
     FM102200 28012KT P6SM SCT060
     FM110400 28014G21KT P6SM SCT250=



000
FTUS41 KLWX 100738 AAA
TAFDCA
TAF AMD
KDCA 100738Z 1008/1106 31009KT P6SM OVC050
      TEMPO 1008/1012 32012G21KT
     FM101400 28011G19KT P6SM BKN070
     FM102100 29013G22KT P6SM BKN040=



000
FTUS41 KLWX 100738 AAA
TAFDCA
TAF AMD
KDCA 100738Z 1008/1106 31009KT P6SM OVC050
      TEMPO 1008/1012 32012G21KT
     FM101400 28011G19KT P6SM BKN070
     FM102100 29013G22KT P6SM BKN040=



000
FTUS41 KLWX 100737 AAA
TAFBWI
TAF AMD
KBWI 100737Z 1008/1112 29013G20KT P6SM VCSH OVC060
      TEMPO 1008/1010 5SM -SHSN OVC035
     FM101900 28014G22KT P6SM BKN040
     FM102200 28012KT P6SM SCT060
     FM110400 28014G21KT P6SM SCT250=



000
FTUS41 KLWX 100737 AAA
TAFBWI
TAF AMD
KBWI 100737Z 1008/1112 29013G20KT P6SM VCSH OVC060
      TEMPO 1008/1010 5SM -SHSN OVC035
     FM101900 28014G22KT P6SM BKN040
     FM102200 28012KT P6SM SCT060
     FM110400 28014G21KT P6SM SCT250=



000
FTUS41 KLWX 100520
TAFDCA
TAF
KDCA 100520Z 1006/1106 31009KT P6SM BKN050
     FM101400 28011G19KT P6SM BKN070
     FM102100 29013G22KT P6SM BKN040=



000
FTUS41 KLWX 100520
TAFMTN
TAF
KMTN 100520Z 1006/1106 NIL=



000
FTUS41 KLWX 100520
TAFIAD
TAF
KIAD 100520Z 1006/1112 31011KT P6SM BKN050
     FM101400 29012G20KT P6SM BKN070
     FM102000 28013G22KT P6SM BKN040
     FM102300 29011KT P6SM BKN060
     FM110500 29014G22KT P6SM SCT250=



000
FTUS41 KLWX 100520
TAFCHO
TAF
KCHO 100520Z 1006/1106 28006KT P6SM OVC060
     FM101600 26010KT P6SM SCT080=



000
FTUS41 KLWX 100520
TAFMRB
TAF
KMRB 100520Z 1006/1106 29010G17KT P6SM OVC050
     FM101000 27009KT P6SM BKN080
     FM101500 27013G21KT P6SM OVC040=



000
FTUS41 KLWX 100520
TAFBWI
TAF
KBWI 100520Z 1006/1112 29013G20KT P6SM VCSH OVC045
     FM100900 29009G16KT P6SM BKN060
     FM101900 28014G22KT P6SM BKN040
     FM102200 28012KT P6SM SCT060
     FM110400 28014G21KT P6SM SCT250=



    US Dept of Commerce
    National Oceanic and Atmospheric Administration
    National Weather Service
    1325 East West Highway
    Silver Spring, MD 20910
    Page Author: NWS Internet Services Team
Disclaimer
Information Quality
Credits
Glossary
Privacy Policy
Freedom of Information Act (FOIA)
About Us
Career Opportunities